sensor_id;sensor_type;location;lat;lon;timestamp;P1;durP1;ratioP1;P2;durP2;ratioP2
1416;SDS011;703;51.162;13.574;2023-01-25T00:01:36;84.90;;;34.27;;
1416;SDS011;703;51.162;13.574;2023-01-25T00:04:02;81.87;;;32.40;;
1416;SDS011;703;51.162;13.574;2023-01-25T00:06:27;85.20;;;34.33;;
1416;SDS011;703;51.162;13.574;2023-01-25T00:08:53;80.10;;;32.13;;
1416;SDS011;703;51.162;13.574;2023-01-25T00:11:18;82.83;;;35.00;;
1416;SDS011;703;51.162;13.574;2023-01-25T00:13:45;83.23;;;33.63;;
1416;SDS011;703;51.162;13.574;2023-01-25T00:16:10;85.03;;;31.77;;
1416;SDS011;703;51.162;13.574;2023-01-25T00:18:36;78.10;;;32.30;;
1416;SDS011;703;51.162;13.574;2023-01-25T00:21:15;83.37;;;31.23;;
1416;SDS011;703;51.162;13.574;2023-01-25T00:23:42;84.17;;;31.60;;
1416;SDS011;703;51.162;13.574;2023-01-25T00:26:08;84.10;;;31.13;;
1416;SDS011;703;51.162;13.574;2023-01-25T00:28:34;80.77;;;31.00;;
1416;SDS011;703;51.162;13.574;2023-01-25T00:31:00;81.17;;;32.73;;
1416;SDS011;703;51.162;13.574;2023-01-25T00:36:02;74.33;;;29.20;;
1416;SDS011;703;51.162;13.574;2023-01-25T00:38:56;78.80;;;27.70;;
1416;SDS011;703;51.162;13.574;2023-01-25T00:41:23;82.73;;;31.77;;
1416;SDS011;703;51.162;13.574;2023-01-25T00:43:49;78.83;;;30.27;;
1416;SDS011;703;51.162;13.574;2023-01-25T00:46:15;70.63;;;27.20;;
1416;SDS011;703;51.162;13.574;2023-01-25T00:48:41;77.23;;;31.30;;
1416;SDS011;703;51.162;13.574;2023-01-25T00:51:07;79.57;;;31.40;;
1416;SDS011;703;51.162;13.574;2023-01-25T00:53:33;87.73;;;32.97;;
1416;SDS011;703;51.162;13.574;2023-01-25T00:55:59;78.13;;;30.57;;
1416;SDS011;703;51.162;13.574;2023-01-25T00:58:25;77.07;;;29.70;;
1416;SDS011;703;51.162;13.574;2023-01-25T01:00:51;74.73;;;29.07;;
1416;SDS011;703;51.162;13.574;2023-01-25T01:03:20;76.37;;;31.30;;
1416;SDS011;703;51.162;13.574;2023-01-25T01:05:46;78.00;;;28.27;;
1416;SDS011;703;51.162;13.574;2023-01-25T01:08:13;72.97;;;26.40;;
1416;SDS011;703;51.162;13.574;2023-01-25T01:10:39;72.47;;;26.07;;
1416;SDS011;703;51.162;13.574;2023-01-25T01:13:05;68.10;;;26.20;;
1416;SDS011;703;51.162;13.574;2023-01-25T01:15:34;65.20;;;24.20;;
1416;SDS011;703;51.162;13.574;2023-01-25T01:18:00;71.20;;;25.70;;
1416;SDS011;703;51.162;13.574;2023-01-25T01:20:26;70.93;;;25.73;;
1416;SDS011;703;51.162;13.574;2023-01-25T01:22:52;72.40;;;26.53;;
1416;SDS011;703;51.162;13.574;2023-01-25T01:25:19;66.03;;;24.80;;
1416;SDS011;703;51.162;13.574;2023-01-25T01:27:45;65.40;;;22.73;;
1416;SDS011;703;51.162;13.574;2023-01-25T01:30:11;65.37;;;22.40;;
1416;SDS011;703;51.162;13.574;2023-01-25T01:32:36;65.30;;;23.57;;
1416;SDS011;703;51.162;13.574;2023-01-25T01:35:02;68.70;;;24.40;;
1416;SDS011;703;51.162;13.574;2023-01-25T01:37:28;63.60;;;20.70;;
1416;SDS011;703;51.162;13.574;2023-01-25T01:39:53;58.67;;;19.50;;
1416;SDS011;703;51.162;13.574;2023-01-25T01:42:19;65.00;;;23.23;;
1416;SDS011;703;51.162;13.574;2023-01-25T01:44:49;59.57;;;19.73;;
1416;SDS011;703;51.162;13.574;2023-01-25T01:47:28;67.37;;;22.63;;
1416;SDS011;703;51.162;13.574;2023-01-25T01:50:03;64.83;;;21.50;;
1416;SDS011;703;51.162;13.574;2023-01-25T01:52:40;65.80;;;22.73;;
1416;SDS011;703;51.162;13.574;2023-01-25T01:55:07;62.57;;;20.30;;
1416;SDS011;703;51.162;13.574;2023-01-25T01:57:41;59.60;;;19.77;;
1416;SDS011;703;51.162;13.574;2023-01-25T02:00:11;60.93;;;20.37;;
1416;SDS011;703;51.162;13.574;2023-01-25T02:02:41;64.03;;;20.63;;
1416;SDS011;703;51.162;13.574;2023-01-25T02:05:08;60.93;;;20.60;;
1416;SDS011;703;51.162;13.574;2023-01-25T02:07:38;58.60;;;19.40;;
1416;SDS011;703;51.162;13.574;2023-01-25T02:10:05;62.17;;;20.90;;
1416;SDS011;703;51.162;13.574;2023-01-25T02:12:35;67.13;;;21.93;;
1416;SDS011;703;51.162;13.574;2023-01-25T02:15:02;60.20;;;21.53;;
1416;SDS011;703;51.162;13.574;2023-01-25T02:17:29;59.37;;;19.90;;
1416;SDS011;703;51.162;13.574;2023-01-25T02:20:00;61.03;;;19.70;;
1416;SDS011;703;51.162;13.574;2023-01-25T02:22:43;62.03;;;21.97;;
1416;SDS011;703;51.162;13.574;2023-01-25T02:25:10;61.20;;;20.80;;
1416;SDS011;703;51.162;13.574;2023-01-25T02:27:39;61.37;;;20.17;;
1416;SDS011;703;51.162;13.574;2023-01-25T02:30:12;61.00;;;20.50;;
1416;SDS011;703;51.162;13.574;2023-01-25T02:32:38;61.73;;;21.73;;
1416;SDS011;703;51.162;13.574;2023-01-25T02:35:04;63.23;;;21.57;;
1416;SDS011;703;51.162;13.574;2023-01-25T02:37:30;63.40;;;22.07;;
1416;SDS011;703;51.162;13.574;2023-01-25T02:39:56;64.10;;;21.23;;
1416;SDS011;703;51.162;13.574;2023-01-25T02:42:21;60.90;;;21.47;;
1416;SDS011;703;51.162;13.574;2023-01-25T02:44:47;62.87;;;21.53;;
1416;SDS011;703;51.162;13.574;2023-01-25T02:47:14;60.87;;;20.83;;
1416;SDS011;703;51.162;13.574;2023-01-25T02:49:40;64.03;;;24.50;;
1416;SDS011;703;51.162;13.574;2023-01-25T02:52:06;62.83;;;23.20;;
1416;SDS011;703;51.162;13.574;2023-01-25T02:54:31;64.37;;;22.40;;
1416;SDS011;703;51.162;13.574;2023-01-25T02:56:57;65.07;;;23.57;;
1416;SDS011;703;51.162;13.574;2023-01-25T02:59:22;60.57;;;21.50;;
1416;SDS011;703;51.162;13.574;2023-01-25T03:01:48;61.37;;;20.00;;
1416;SDS011;703;51.162;13.574;2023-01-25T03:04:14;60.50;;;21.80;;
1416;SDS011;703;51.162;13.574;2023-01-25T03:06:40;61.43;;;22.37;;
1416;SDS011;703;51.162;13.574;2023-01-25T03:09:08;66.53;;;25.13;;
1416;SDS011;703;51.162;13.574;2023-01-25T03:11:35;65.07;;;24.37;;
1416;SDS011;703;51.162;13.574;2023-01-25T03:14:01;58.70;;;20.30;;
1416;SDS011;703;51.162;13.574;2023-01-25T03:16:30;62.63;;;22.27;;
1416;SDS011;703;51.162;13.574;2023-01-25T03:18:55;61.90;;;24.37;;
1416;SDS011;703;51.162;13.574;2023-01-25T03:21:21;60.40;;;21.40;;
1416;SDS011;703;51.162;13.574;2023-01-25T03:23:52;68.27;;;24.43;;
1416;SDS011;703;51.162;13.574;2023-01-25T03:26:20;66.50;;;25.97;;
1416;SDS011;703;51.162;13.574;2023-01-25T03:28:47;68.50;;;25.70;;
1416;SDS011;703;51.162;13.574;2023-01-25T03:31:14;65.17;;;25.40;;
1416;SDS011;703;51.162;13.574;2023-01-25T03:33:41;70.57;;;27.33;;
1416;SDS011;703;51.162;13.574;2023-01-25T03:36:07;62.63;;;21.37;;
1416;SDS011;703;51.162;13.574;2023-01-25T03:38:33;65.80;;;24.83;;
1416;SDS011;703;51.162;13.574;2023-01-25T03:40:59;66.03;;;23.13;;
1416;SDS011;703;51.162;13.574;2023-01-25T03:43:25;62.03;;;21.83;;
1416;SDS011;703;51.162;13.574;2023-01-25T03:45:52;64.73;;;23.30;;
1416;SDS011;703;51.162;13.574;2023-01-25T03:48:22;65.13;;;22.67;;
1416;SDS011;703;51.162;13.574;2023-01-25T03:50:49;65.30;;;23.90;;
1416;SDS011;703;51.162;13.574;2023-01-25T03:53:16;64.90;;;24.27;;
1416;SDS011;703;51.162;13.574;2023-01-25T03:55:56;67.50;;;25.20;;
1416;SDS011;703;51.162;13.574;2023-01-25T03:58:23;63.10;;;23.20;;
1416;SDS011;703;51.162;13.574;2023-01-25T04:00:49;64.03;;;23.67;;
1416;SDS011;703;51.162;13.574;2023-01-25T04:03:15;64.63;;;22.60;;
1416;SDS011;703;51.162;13.574;2023-01-25T04:05:43;68.63;;;25.40;;
1416;SDS011;703;51.162;13.574;2023-01-25T04:08:09;63.20;;;23.17;;
1416;SDS011;703;51.162;13.574;2023-01-25T04:10:34;66.10;;;24.57;;
1416;SDS011;703;51.162;13.574;2023-01-25T04:13:00;66.97;;;24.80;;
1416;SDS011;703;51.162;13.574;2023-01-25T04:15:26;63.10;;;23.90;;
1416;SDS011;703;51.162;13.574;2023-01-25T04:17:51;65.53;;;25.10;;
1416;SDS011;703;51.162;13.574;2023-01-25T04:20:17;67.23;;;24.93;;
1416;SDS011;703;51.162;13.574;2023-01-25T04:22:42;65.73;;;24.73;;
1416;SDS011;703;51.162;13.574;2023-01-25T04:25:08;68.37;;;26.33;;
1416;SDS011;703;51.162;13.574;2023-01-25T04:27:34;64.13;;;23.27;;
1416;SDS011;703;51.162;13.574;2023-01-25T04:29:59;65.37;;;22.97;;
1416;SDS011;703;51.162;13.574;2023-01-25T04:32:25;62.27;;;22.10;;
1416;SDS011;703;51.162;13.574;2023-01-25T04:34:51;60.60;;;22.97;;
1416;SDS011;703;51.162;13.574;2023-01-25T04:37:16;62.13;;;22.73;;
1416;SDS011;703;51.162;13.574;2023-01-25T04:39:42;66.07;;;25.97;;
1416;SDS011;703;51.162;13.574;2023-01-25T04:42:07;61.77;;;22.70;;
1416;SDS011;703;51.162;13.574;2023-01-25T04:44:33;59.33;;;20.90;;
1416;SDS011;703;51.162;13.574;2023-01-25T04:46:58;61.30;;;21.23;;
1416;SDS011;703;51.162;13.574;2023-01-25T04:49:24;64.53;;;22.80;;
1416;SDS011;703;51.162;13.574;2023-01-25T04:51:49;64.07;;;24.07;;
1416;SDS011;703;51.162;13.574;2023-01-25T04:54:15;70.00;;;27.10;;
1416;SDS011;703;51.162;13.574;2023-01-25T04:56:41;67.37;;;25.70;;
1416;SDS011;703;51.162;13.574;2023-01-25T04:59:06;67.07;;;23.23;;
1416;SDS011;703;51.162;13.574;2023-01-25T05:01:32;63.07;;;20.97;;
1416;SDS011;703;51.162;13.574;2023-01-25T05:03:58;63.00;;;21.60;;
1416;SDS011;703;51.162;13.574;2023-01-25T05:06:24;65.80;;;23.17;;
1416;SDS011;703;51.162;13.574;2023-01-25T05:08:50;64.37;;;22.90;;
1416;SDS011;703;51.162;13.574;2023-01-25T05:11:15;66.30;;;22.43;;
1416;SDS011;703;51.162;13.574;2023-01-25T05:13:41;63.93;;;25.00;;
1416;SDS011;703;51.162;13.574;2023-01-25T05:16:07;65.20;;;23.57;;
1416;SDS011;703;51.162;13.574;2023-01-25T05:18:32;65.20;;;21.87;;
1416;SDS011;703;51.162;13.574;2023-01-25T05:20:58;62.30;;;22.70;;
1416;SDS011;703;51.162;13.574;2023-01-25T05:23:23;64.70;;;24.17;;
1416;SDS011;703;51.162;13.574;2023-01-25T05:25:49;65.17;;;23.13;;
1416;SDS011;703;51.162;13.574;2023-01-25T05:28:33;65.07;;;25.23;;
1416;SDS011;703;51.162;13.574;2023-01-25T05:31:02;70.17;;;27.30;;
1416;SDS011;703;51.162;13.574;2023-01-25T05:33:28;64.03;;;24.17;;
1416;SDS011;703;51.162;13.574;2023-01-25T05:35:54;66.13;;;22.00;;
1416;SDS011;703;51.162;13.574;2023-01-25T05:38:20;62.47;;;23.50;;
1416;SDS011;703;51.162;13.574;2023-01-25T05:40:46;62.37;;;23.30;;
1416;SDS011;703;51.162;13.574;2023-01-25T05:43:11;67.23;;;25.77;;
1416;SDS011;703;51.162;13.574;2023-01-25T05:45:37;64.50;;;24.77;;
1416;SDS011;703;51.162;13.574;2023-01-25T05:48:04;62.27;;;20.13;;
1416;SDS011;703;51.162;13.574;2023-01-25T05:50:30;78.97;;;40.80;;
1416;SDS011;703;51.162;13.574;2023-01-25T05:52:56;110.90;;;69.80;;
1416;SDS011;703;51.162;13.574;2023-01-25T05:55:21;190.33;;;134.77;;
1416;SDS011;703;51.162;13.574;2023-01-25T05:57:47;112.37;;;66.17;;
1416;SDS011;703;51.162;13.574;2023-01-25T06:00:13;73.63;;;28.90;;
1416;SDS011;703;51.162;13.574;2023-01-25T06:02:39;64.40;;;24.90;;
1416;SDS011;703;51.162;13.574;2023-01-25T06:05:06;64.20;;;24.23;;
1416;SDS011;703;51.162;13.574;2023-01-25T06:07:32;84.57;;;43.30;;
1416;SDS011;703;51.162;13.574;2023-01-25T06:10:00;72.17;;;30.80;;
1416;SDS011;703;51.162;13.574;2023-01-25T06:12:26;66.00;;;25.00;;
1416;SDS011;703;51.162;13.574;2023-01-25T06:14:52;65.80;;;27.87;;
1416;SDS011;703;51.162;13.574;2023-01-25T06:17:18;67.83;;;27.87;;
1416;SDS011;703;51.162;13.574;2023-01-25T06:19:43;61.37;;;22.03;;
1416;SDS011;703;51.162;13.574;2023-01-25T06:22:09;67.87;;;27.60;;
1416;SDS011;703;51.162;13.574;2023-01-25T06:24:35;76.50;;;35.33;;
1416;SDS011;703;51.162;13.574;2023-01-25T06:27:00;67.10;;;27.30;;
1416;SDS011;703;51.162;13.574;2023-01-25T06:29:26;64.90;;;26.53;;
1416;SDS011;703;51.162;13.574;2023-01-25T06:31:51;71.53;;;31.20;;
1416;SDS011;703;51.162;13.574;2023-01-25T06:34:19;69.83;;;31.83;;
1416;SDS011;703;51.162;13.574;2023-01-25T06:36:44;65.17;;;25.90;;
1416;SDS011;703;51.162;13.574;2023-01-25T06:39:11;66.43;;;25.20;;
1416;SDS011;703;51.162;13.574;2023-01-25T06:41:37;68.10;;;26.50;;
1416;SDS011;703;51.162;13.574;2023-01-25T06:44:03;65.53;;;26.00;;
1416;SDS011;703;51.162;13.574;2023-01-25T06:46:30;62.03;;;24.47;;
1416;SDS011;703;51.162;13.574;2023-01-25T06:48:56;70.73;;;28.20;;
1416;SDS011;703;51.162;13.574;2023-01-25T06:51:22;68.10;;;26.20;;
1416;SDS011;703;51.162;13.574;2023-01-25T06:53:47;70.20;;;26.60;;
1416;SDS011;703;51.162;13.574;2023-01-25T06:58:46;64.63;;;24.83;;
1416;SDS011;703;51.162;13.574;2023-01-25T07:01:13;65.90;;;24.13;;
1416;SDS011;703;51.162;13.574;2023-01-25T07:03:46;66.73;;;23.97;;
1416;SDS011;703;51.162;13.574;2023-01-25T07:06:16;66.40;;;25.03;;
1416;SDS011;703;51.162;13.574;2023-01-25T07:08:43;64.30;;;21.83;;
1416;SDS011;703;51.162;13.574;2023-01-25T07:11:09;66.13;;;25.27;;
1416;SDS011;703;51.162;13.574;2023-01-25T07:13:40;78.57;;;35.40;;
1416;SDS011;703;51.162;13.574;2023-01-25T07:16:13;68.57;;;26.53;;
1416;SDS011;703;51.162;13.574;2023-01-25T07:18:40;80.43;;;29.87;;
1416;SDS011;703;51.162;13.574;2023-01-25T07:21:08;70.03;;;27.87;;
1416;SDS011;703;51.162;13.574;2023-01-25T07:23:36;64.30;;;23.00;;
1416;SDS011;703;51.162;13.574;2023-01-25T07:26:02;60.90;;;20.60;;
1416;SDS011;703;51.162;13.574;2023-01-25T07:28:29;64.33;;;24.87;;
1416;SDS011;703;51.162;13.574;2023-01-25T07:30:55;69.50;;;24.77;;
1416;SDS011;703;51.162;13.574;2023-01-25T07:33:21;63.77;;;24.60;;
1416;SDS011;703;51.162;13.574;2023-01-25T07:35:47;70.90;;;28.77;;
1416;SDS011;703;51.162;13.574;2023-01-25T07:38:14;78.93;;;33.10;;
1416;SDS011;703;51.162;13.574;2023-01-25T07:40:40;78.33;;;33.67;;
1416;SDS011;703;51.162;13.574;2023-01-25T07:43:06;62.10;;;22.53;;
1416;SDS011;703;51.162;13.574;2023-01-25T07:45:32;63.40;;;26.00;;
1416;SDS011;703;51.162;13.574;2023-01-25T07:47:58;70.27;;;26.70;;
1416;SDS011;703;51.162;13.574;2023-01-25T07:50:27;63.93;;;23.07;;
1416;SDS011;703;51.162;13.574;2023-01-25T07:52:53;63.20;;;21.93;;
1416;SDS011;703;51.162;13.574;2023-01-25T07:55:19;65.60;;;24.70;;
1416;SDS011;703;51.162;13.574;2023-01-25T07:57:45;61.00;;;21.77;;
1416;SDS011;703;51.162;13.574;2023-01-25T08:00:11;59.70;;;22.97;;
1416;SDS011;703;51.162;13.574;2023-01-25T08:02:37;60.57;;;21.37;;
1416;SDS011;703;51.162;13.574;2023-01-25T08:05:04;65.47;;;23.00;;
1416;SDS011;703;51.162;13.574;2023-01-25T08:07:30;63.50;;;24.47;;
1416;SDS011;703;51.162;13.574;2023-01-25T08:09:56;63.40;;;23.73;;
1416;SDS011;703;51.162;13.574;2023-01-25T08:12:22;65.30;;;24.13;;
1416;SDS011;703;51.162;13.574;2023-01-25T08:14:49;62.87;;;24.97;;
1416;SDS011;703;51.162;13.574;2023-01-25T08:17:15;62.27;;;22.40;;
1416;SDS011;703;51.162;13.574;2023-01-25T08:19:41;64.00;;;24.53;;
1416;SDS011;703;51.162;13.574;2023-01-25T08:22:07;65.30;;;25.13;;
1416;SDS011;703;51.162;13.574;2023-01-25T08:24:32;65.77;;;27.40;;
1416;SDS011;703;51.162;13.574;2023-01-25T08:26:58;60.93;;;24.83;;
1416;SDS011;703;51.162;13.574;2023-01-25T08:29:24;61.23;;;22.30;;
1416;SDS011;703;51.162;13.574;2023-01-25T08:31:52;63.23;;;23.57;;
1416;SDS011;703;51.162;13.574;2023-01-25T08:34:17;64.80;;;24.80;;
1416;SDS011;703;51.162;13.574;2023-01-25T08:36:43;61.97;;;22.90;;
1416;SDS011;703;51.162;13.574;2023-01-25T08:39:09;64.37;;;24.20;;
1416;SDS011;703;51.162;13.574;2023-01-25T08:41:36;65.70;;;26.10;;
1416;SDS011;703;51.162;13.574;2023-01-25T08:44:02;66.93;;;26.20;;
1416;SDS011;703;51.162;13.574;2023-01-25T08:46:29;82.13;;;64.27;;
1416;SDS011;703;51.162;13.574;2023-01-25T08:48:57;71.87;;;48.40;;
1416;SDS011;703;51.162;13.574;2023-01-25T08:51:23;65.03;;;25.37;;
1416;SDS011;703;51.162;13.574;2023-01-25T08:53:49;62.17;;;22.77;;
1416;SDS011;703;51.162;13.574;2023-01-25T08:56:15;65.77;;;26.90;;
1416;SDS011;703;51.162;13.574;2023-01-25T08:58:42;63.63;;;25.57;;
1416;SDS011;703;51.162;13.574;2023-01-25T09:01:10;67.13;;;26.80;;
1416;SDS011;703;51.162;13.574;2023-01-25T09:03:38;64.80;;;26.07;;
1416;SDS011;703;51.162;13.574;2023-01-25T09:06:08;67.37;;;26.60;;
1416;SDS011;703;51.162;13.574;2023-01-25T09:08:34;67.17;;;24.83;;
1416;SDS011;703;51.162;13.574;2023-01-25T09:11:12;64.20;;;25.13;;
1416;SDS011;703;51.162;13.574;2023-01-25T09:13:39;67.13;;;26.30;;
1416;SDS011;703;51.162;13.574;2023-01-25T09:16:10;67.70;;;28.13;;
1416;SDS011;703;51.162;13.574;2023-01-25T09:18:39;63.10;;;24.37;;
1416;SDS011;703;51.162;13.574;2023-01-25T09:21:06;70.13;;;28.57;;
1416;SDS011;703;51.162;13.574;2023-01-25T09:23:33;70.73;;;28.90;;
1416;SDS011;703;51.162;13.574;2023-01-25T09:26:00;73.00;;;29.33;;
1416;SDS011;703;51.162;13.574;2023-01-25T09:28:29;69.40;;;29.70;;
1416;SDS011;703;51.162;13.574;2023-01-25T09:30:56;70.43;;;28.97;;
1416;SDS011;703;51.162;13.574;2023-01-25T09:33:31;71.60;;;26.77;;
1416;SDS011;703;51.162;13.574;2023-01-25T09:35:59;73.87;;;30.57;;
1416;SDS011;703;51.162;13.574;2023-01-25T09:38:26;69.60;;;28.20;;
1416;SDS011;703;51.162;13.574;2023-01-25T09:41:11;66.77;;;26.83;;
1416;SDS011;703;51.162;13.574;2023-01-25T09:46:44;63.83;;;22.93;;
1416;SDS011;703;51.162;13.574;2023-01-25T09:54:56;63.20;;;24.33;;
1416;SDS011;703;51.162;13.574;2023-01-25T09:57:28;62.87;;;23.77;;
1416;SDS011;703;51.162;13.574;2023-01-25T10:00:02;65.13;;;23.80;;
1416;SDS011;703;51.162;13.574;2023-01-25T10:05:17;65.83;;;24.03;;
1416;SDS011;703;51.162;13.574;2023-01-25T10:07:52;65.67;;;25.20;;
1416;SDS011;703;51.162;13.574;2023-01-25T10:10:40;62.70;;;23.67;;
1416;SDS011;703;51.162;13.574;2023-01-25T10:13:11;63.27;;;20.60;;
1416;SDS011;703;51.162;13.574;2023-01-25T10:15:45;61.97;;;23.23;;
1416;SDS011;703;51.162;13.574;2023-01-25T10:23:33;65.80;;;22.77;;
1416;SDS011;703;51.162;13.574;2023-01-25T10:28:39;62.57;;;23.50;;
1416;SDS011;703;51.162;13.574;2023-01-25T10:33:45;61.80;;;22.40;;
1416;SDS011;703;51.162;13.574;2023-01-25T10:36:14;63.00;;;22.40;;
1416;SDS011;703;51.162;13.574;2023-01-25T10:38:42;63.53;;;24.90;;
1416;SDS011;703;51.162;13.574;2023-01-25T10:43:38;69.97;;;26.97;;
1416;SDS011;703;51.162;13.574;2023-01-25T10:46:08;65.87;;;25.73;;
1416;SDS011;703;51.162;13.574;2023-01-25T10:48:46;65.43;;;25.50;;
1416;SDS011;703;51.162;13.574;2023-01-25T10:51:28;63.70;;;24.23;;
1416;SDS011;703;51.162;13.574;2023-01-25T10:54:03;65.70;;;26.37;;
1416;SDS011;703;51.162;13.574;2023-01-25T10:56:33;66.30;;;27.37;;
1416;SDS011;703;51.162;13.574;2023-01-25T11:01:49;63.73;;;23.50;;
1416;SDS011;703;51.162;13.574;2023-01-25T11:04:31;61.20;;;23.30;;
1416;SDS011;703;51.162;13.574;2023-01-25T11:07:03;61.63;;;23.53;;
1416;SDS011;703;51.162;13.574;2023-01-25T11:09:37;60.80;;;21.17;;
1416;SDS011;703;51.162;13.574;2023-01-25T11:14:35;63.70;;;24.43;;
1416;SDS011;703;51.162;13.574;2023-01-25T11:17:02;58.87;;;22.40;;
1416;SDS011;703;51.162;13.574;2023-01-25T11:22:19;58.33;;;20.97;;
1416;SDS011;703;51.162;13.574;2023-01-25T11:24:48;61.17;;;22.43;;
1416;SDS011;703;51.162;13.574;2023-01-25T11:32:29;57.30;;;20.60;;
1416;SDS011;703;51.162;13.574;2023-01-25T11:34:55;57.70;;;19.70;;
1416;SDS011;703;51.162;13.574;2023-01-25T11:40:08;56.53;;;18.07;;
1416;SDS011;703;51.162;13.574;2023-01-25T11:58:59;57.00;;;19.57;;
1416;SDS011;703;51.162;13.574;2023-01-25T12:02:12;60.40;;;21.63;;
1416;SDS011;703;51.162;13.574;2023-01-25T12:04:45;59.27;;;20.57;;
1416;SDS011;703;51.162;13.574;2023-01-25T12:30:01;53.70;;;16.67;;
1416;SDS011;703;51.162;13.574;2023-01-25T12:32:37;55.90;;;19.27;;
1416;SDS011;703;51.162;13.574;2023-01-25T12:35:19;55.13;;;18.00;;
1416;SDS011;703;51.162;13.574;2023-01-25T12:38:08;54.83;;;17.33;;
1416;SDS011;703;51.162;13.574;2023-01-25T12:43:14;54.40;;;18.20;;
1416;SDS011;703;51.162;13.574;2023-01-25T12:45:44;54.27;;;17.07;;
1416;SDS011;703;51.162;13.574;2023-01-25T12:48:14;56.83;;;18.90;;
1416;SDS011;703;51.162;13.574;2023-01-25T12:55:43;56.30;;;18.20;;
1416;SDS011;703;51.162;13.574;2023-01-25T12:58:14;56.20;;;18.70;;
1416;SDS011;703;51.162;13.574;2023-01-25T13:00:54;52.67;;;16.60;;
1416;SDS011;703;51.162;13.574;2023-01-25T13:03:24;52.67;;;17.03;;
1416;SDS011;703;51.162;13.574;2023-01-25T13:11:57;55.57;;;18.17;;
1416;SDS011;703;51.162;13.574;2023-01-25T13:14:36;55.60;;;19.43;;
1416;SDS011;703;51.162;13.574;2023-01-25T13:19:54;54.00;;;19.33;;
1416;SDS011;703;51.162;13.574;2023-01-25T13:25:28;55.80;;;18.03;;
1416;SDS011;703;51.162;13.574;2023-01-25T13:28:02;53.03;;;17.53;;
1416;SDS011;703;51.162;13.574;2023-01-25T13:30:57;54.90;;;18.40;;
1416;SDS011;703;51.162;13.574;2023-01-25T13:33:30;55.27;;;18.90;;
1416;SDS011;703;51.162;13.574;2023-01-25T13:36:00;57.97;;;20.57;;
1416;SDS011;703;51.162;13.574;2023-01-25T13:44:51;53.20;;;17.47;;
1416;SDS011;703;51.162;13.574;2023-01-25T13:47:31;53.70;;;17.53;;
1416;SDS011;703;51.162;13.574;2023-01-25T13:52:33;57.83;;;19.50;;
1416;SDS011;703;51.162;13.574;2023-01-25T13:54:59;55.40;;;19.00;;
1416;SDS011;703;51.162;13.574;2023-01-25T13:57:26;54.93;;;18.93;;
1416;SDS011;703;51.162;13.574;2023-01-25T13:59:57;57.57;;;19.57;;
1416;SDS011;703;51.162;13.574;2023-01-25T14:02:26;55.80;;;18.60;;
1416;SDS011;703;51.162;13.574;2023-01-25T14:04:52;56.10;;;19.40;;
1416;SDS011;703;51.162;13.574;2023-01-25T14:07:19;57.37;;;20.10;;
1416;SDS011;703;51.162;13.574;2023-01-25T14:09:49;58.50;;;21.60;;
1416;SDS011;703;51.162;13.574;2023-01-25T14:17:42;56.13;;;18.77;;
1416;SDS011;703;51.162;13.574;2023-01-25T14:20:21;57.47;;;21.73;;
1416;SDS011;703;51.162;13.574;2023-01-25T14:22:47;60.13;;;21.13;;
1416;SDS011;703;51.162;13.574;2023-01-25T14:25:17;62.93;;;23.13;;
1416;SDS011;703;51.162;13.574;2023-01-25T14:27:51;56.77;;;19.63;;
1416;SDS011;703;51.162;13.574;2023-01-25T14:30:26;57.77;;;21.27;;
1416;SDS011;703;51.162;13.574;2023-01-25T14:32:55;57.10;;;21.00;;
1416;SDS011;703;51.162;13.574;2023-01-25T14:35:42;57.20;;;20.73;;
1416;SDS011;703;51.162;13.574;2023-01-25T14:38:20;62.10;;;23.93;;
1416;SDS011;703;51.162;13.574;2023-01-25T14:40:48;59.63;;;22.50;;
1416;SDS011;703;51.162;13.574;2023-01-25T14:43:15;60.10;;;24.10;;
1416;SDS011;703;51.162;13.574;2023-01-25T14:45:42;60.50;;;21.83;;
1416;SDS011;703;51.162;13.574;2023-01-25T14:51:21;57.10;;;20.07;;
1416;SDS011;703;51.162;13.574;2023-01-25T14:53:54;58.00;;;21.87;;
1416;SDS011;703;51.162;13.574;2023-01-25T14:56:42;61.77;;;23.30;;
1416;SDS011;703;51.162;13.574;2023-01-25T14:59:32;60.17;;;22.77;;
1416;SDS011;703;51.162;13.574;2023-01-25T15:02:24;63.63;;;22.57;;
1416;SDS011;703;51.162;13.574;2023-01-25T15:05:00;60.50;;;21.63;;
1416;SDS011;703;51.162;13.574;2023-01-25T15:07:42;57.73;;;21.70;;
1416;SDS011;703;51.162;13.574;2023-01-25T15:13:03;62.40;;;25.70;;
1416;SDS011;703;51.162;13.574;2023-01-25T15:21:14;62.00;;;24.17;;
1416;SDS011;703;51.162;13.574;2023-01-25T15:23:42;63.03;;;22.97;;
1416;SDS011;703;51.162;13.574;2023-01-25T15:28:38;61.90;;;23.53;;
1416;SDS011;703;51.162;13.574;2023-01-25T15:31:04;61.57;;;23.10;;
1416;SDS011;703;51.162;13.574;2023-01-25T15:33:29;64.37;;;24.20;;
1416;SDS011;703;51.162;13.574;2023-01-25T15:35:56;61.73;;;24.57;;
1416;SDS011;703;51.162;13.574;2023-01-25T15:38:23;63.13;;;23.70;;
1416;SDS011;703;51.162;13.574;2023-01-25T15:40:49;68.07;;;26.40;;
1416;SDS011;703;51.162;13.574;2023-01-25T15:43:16;61.07;;;23.20;;
1416;SDS011;703;51.162;13.574;2023-01-25T15:45:43;66.07;;;26.10;;
1416;SDS011;703;51.162;13.574;2023-01-25T15:48:15;62.20;;;23.80;;
1416;SDS011;703;51.162;13.574;2023-01-25T15:50:43;61.63;;;23.77;;
1416;SDS011;703;51.162;13.574;2023-01-25T15:53:15;60.73;;;24.10;;
1416;SDS011;703;51.162;13.574;2023-01-25T15:55:43;62.90;;;24.40;;
1416;SDS011;703;51.162;13.574;2023-01-25T15:58:11;68.03;;;21.57;;
1416;SDS011;703;51.162;13.574;2023-01-25T16:00:58;62.97;;;21.30;;
1416;SDS011;703;51.162;13.574;2023-01-25T16:03:24;60.20;;;22.60;;
1416;SDS011;703;51.162;13.574;2023-01-25T16:05:53;61.20;;;20.77;;
1416;SDS011;703;51.162;13.574;2023-01-25T16:08:31;65.67;;;24.67;;
1416;SDS011;703;51.162;13.574;2023-01-25T16:10:57;65.00;;;25.80;;
1416;SDS011;703;51.162;13.574;2023-01-25T16:13:23;62.80;;;25.07;;
1416;SDS011;703;51.162;13.574;2023-01-25T16:15:52;63.50;;;25.50;;
1416;SDS011;703;51.162;13.574;2023-01-25T16:18:19;65.67;;;25.77;;
1416;SDS011;703;51.162;13.574;2023-01-25T16:20:45;63.47;;;23.83;;
1416;SDS011;703;51.162;13.574;2023-01-25T16:23:11;89.30;;;47.50;;
1416;SDS011;703;51.162;13.574;2023-01-25T16:25:38;68.40;;;29.77;;
1416;SDS011;703;51.162;13.574;2023-01-25T16:28:12;75.97;;;39.37;;
1416;SDS011;703;51.162;13.574;2023-01-25T16:30:39;73.30;;;35.70;;
1416;SDS011;703;51.162;13.574;2023-01-25T16:33:05;65.70;;;26.80;;
1416;SDS011;703;51.162;13.574;2023-01-25T16:35:31;63.40;;;25.40;;
1416;SDS011;703;51.162;13.574;2023-01-25T16:37:56;68.60;;;29.13;;
1416;SDS011;703;51.162;13.574;2023-01-25T16:40:23;71.13;;;29.53;;
1416;SDS011;703;51.162;13.574;2023-01-25T16:42:49;70.73;;;29.80;;
1416;SDS011;703;51.162;13.574;2023-01-25T16:45:15;74.20;;;32.00;;
1416;SDS011;703;51.162;13.574;2023-01-25T16:47:43;68.63;;;28.17;;
1416;SDS011;703;51.162;13.574;2023-01-25T16:50:16;69.83;;;27.80;;
1416;SDS011;703;51.162;13.574;2023-01-25T16:52:42;64.70;;;26.30;;
1416;SDS011;703;51.162;13.574;2023-01-25T16:55:14;67.17;;;26.33;;
1416;SDS011;703;51.162;13.574;2023-01-25T16:57:41;69.67;;;30.17;;
1416;SDS011;703;51.162;13.574;2023-01-25T17:00:09;74.33;;;28.97;;
1416;SDS011;703;51.162;13.574;2023-01-25T17:02:37;71.53;;;28.67;;
1416;SDS011;703;51.162;13.574;2023-01-25T17:05:04;70.10;;;31.00;;
1416;SDS011;703;51.162;13.574;2023-01-25T17:07:30;67.70;;;27.40;;
1416;SDS011;703;51.162;13.574;2023-01-25T17:09:56;65.60;;;27.50;;